createdAt,value
2019-05-13T00:02:04.352Z,103356.55
2019-05-13T00:04:33.759Z,103351.02
2019-05-13T00:07:04.411Z,103350.73
2019-05-13T00:09:33.989Z,103351.22
2019-05-13T00:12:04.661Z,103353.98
2019-05-13T00:14:34.439Z,103350.95
2019-05-13T00:17:04.217Z,103353.45
2019-05-13T00:19:33.873Z,103348.27
2019-05-13T00:22:03.814Z,103351.76
2019-05-13T00:24:33.966Z,103356.16
2019-05-13T00:27:03.958Z,103357.48
2019-05-13T00:29:35.085Z,103355.52
2019-05-13T00:32:04.718Z,103357.29
2019-05-13T00:34:34.046Z,103361.06
2019-05-13T00:37:08.822Z,103364.48
2019-05-13T00:39:33.642Z,103370.39
2019-05-13T00:42:03.989Z,103359.47
2019-05-13T00:44:33.816Z,103364.48
2019-05-13T00:47:04.483Z,103374.88
2019-05-13T00:49:35.217Z,103381.98
2019-05-13T00:52:04.133Z,103377.39
2019-05-13T00:54:34.227Z,103376.92
2019-05-13T00:57:04.148Z,103375.23
2019-05-13T00:59:33.842Z,103377.91
2019-05-13T01:02:03.618Z,103382.41
2019-05-13T01:04:33.895Z,103385.42
2019-05-13T01:07:04.473Z,103377.40
2019-05-13T01:09:34.261Z,103380.62
2019-05-13T01:12:05.412Z,103378.50
2019-05-13T01:14:34.338Z,103380.73
2019-05-13T01:17:03.925Z,103376.73
2019-05-13T01:19:34.252Z,103380.15
2019-05-13T01:22:04.391Z,103380.29
2019-05-13T01:24:33.654Z,103374.31
2019-05-13T01:27:03.991Z,103376.22
2019-05-13T01:29:34.461Z,103376.47
2019-05-13T01:32:04.577Z,103374.14
2019-05-13T01:34:39.444Z,103377.77
2019-05-13T01:37:07.927Z,103373.41
2019-05-13T01:39:36.333Z,103371.28
2019-05-13T01:42:05.135Z,103369.17
2019-05-13T01:44:33.787Z,103360.68
2019-05-13T01:47:04.297Z,103357.45
2019-05-13T01:49:34.414Z,103359.66
2019-05-13T01:52:04.053Z,103365.76
2019-05-13T01:54:33.834Z,103369.48
2019-05-13T01:57:04.492Z,103367.66
2019-05-13T01:59:34.674Z,103370.29
2019-05-13T02:02:03.493Z,103371.95
2019-05-13T02:04:33.589Z,103366.95
2019-05-13T02:07:04.134Z,103368.97
2019-05-13T02:09:33.702Z,103373.53
2019-05-13T02:12:04.700Z,103373.02
2019-05-13T02:14:34.043Z,103376.41
2019-05-13T02:17:04.340Z,103382.99
2019-05-13T02:19:33.636Z,103386.88
2019-05-13T02:22:04.970Z,103381.98
2019-05-13T02:24:34.199Z,103383.16
2019-05-13T02:27:08.477Z,103388.02
2019-05-13T02:29:36.225Z,103384.98
2019-05-13T02:32:04.654Z,103392.34
2019-05-13T02:34:34.137Z,103387.51
2019-05-13T02:37:03.464Z,103389.64
2019-05-13T02:39:32.838Z,103386.02
2019-05-13T02:42:03.483Z,103393.28
2019-05-13T02:44:33.408Z,103389.97
2019-05-13T02:47:03.354Z,103392.53
2019-05-13T02:49:32.784Z,103397.77
2019-05-13T02:52:02.821Z,103401.66
2019-05-13T02:54:34.071Z,103400.28
2019-05-13T02:57:05.018Z,103400.27
2019-05-13T02:59:33.942Z,103403.61
2019-05-13T03:02:03.614Z,103405.50
2019-05-13T03:04:32.867Z,103405.69
2019-05-13T03:07:03.005Z,103410.58
2019-05-13T03:09:32.507Z,103410.02
2019-05-13T03:12:04.005Z,103411.90
2019-05-13T03:14:32.374Z,103413.72
2019-05-13T03:17:03.461Z,103411.24
2019-05-13T03:19:33.156Z,103426.38
2019-05-13T03:22:04.426Z,103413.97
2019-05-13T03:24:34.097Z,103419.55
2019-05-13T03:27:02.846Z,103414.53
2019-05-13T03:29:33.056Z,103416.03
2019-05-13T03:32:06.390Z,103419.42
2019-05-13T03:34:36.652Z,103424.59
2019-05-13T03:37:06.942Z,103423.63
2019-05-13T03:39:37.775Z,103429.52
2019-05-13T03:42:07.453Z,103429.39
2019-05-13T03:44:38.851Z,103428.92
2019-05-13T03:47:12.656Z,103435.47
2019-05-13T03:49:45.999Z,103437.10
2019-05-13T03:52:14.450Z,103435.56
2019-05-13T03:54:43.680Z,103442.22
2019-05-13T03:57:12.720Z,103438.86
2019-05-13T03:59:43.620Z,103435.38
2019-05-13T04:02:13.005Z,103437.89
2019-05-13T04:04:42.459Z,103443.06
2019-05-13T04:07:14.940Z,103440.70
2019-05-13T04:09:44.452Z,103438.45
2019-05-13T04:12:13.688Z,103447.45
2019-05-13T04:14:42.997Z,103445.50
2019-05-13T04:17:12.533Z,103443.45
2019-05-13T04:19:42.337Z,103448.95
2019-05-13T04:22:12.907Z,103439.39
2019-05-13T04:24:44.498Z,103440.17
2019-05-13T04:27:13.455Z,103444.45
2019-05-13T04:29:45.222Z,103438.17
2019-05-13T04:32:13.712Z,103448.48
2019-05-13T04:34:42.624Z,103448.53
2019-05-13T04:37:13.192Z,103448.62
2019-05-13T04:39:51.011Z,103445.62
2019-05-13T04:42:13.448Z,103438.60
2019-05-13T04:44:43.191Z,103446.48
2019-05-13T04:47:12.707Z,103449.34
2019-05-13T04:49:42.892Z,103452.08
2019-05-13T04:52:13.326Z,103447.27
2019-05-13T04:54:46.811Z,103455.48
2019-05-13T04:57:15.233Z,103458.23
2019-05-13T04:59:44.608Z,103455.03
2019-05-13T05:02:40.131Z,103457.92
2019-05-13T05:05:23.911Z,103456.37
2019-05-13T05:08:07.120Z,103455.70
2019-05-13T05:11:03.851Z,103449.52
2019-05-13T05:13:47.202Z,103444.34
2019-05-13T05:16:28.850Z,103440.97
2019-05-13T05:19:32.109Z,103449.41
2019-05-13T05:22:13.452Z,103444.41
2019-05-13T05:25:02.715Z,103449.39
2019-05-13T05:27:51.290Z,103446.00
2019-05-13T05:30:44.903Z,103459.59
2019-05-13T05:33:37.523Z,103456.73
2019-05-13T05:36:11.848Z,103460.56
2019-05-13T05:38:55.415Z,103456.73
2019-05-13T05:41:26.903Z,103454.27
2019-05-13T05:43:57.341Z,103456.75
2019-05-13T05:46:26.405Z,103459.97
2019-05-13T05:48:55.962Z,103456.38
2019-05-13T05:51:25.694Z,103456.92
2019-05-13T05:53:57.445Z,103459.25
2019-05-13T05:56:32.347Z,103463.03
2019-05-13T05:59:03.040Z,103463.08
2019-05-13T06:01:32.784Z,103462.03
2019-05-13T06:04:01.945Z,103460.14
2019-05-13T06:06:32.940Z,103463.38
2019-05-13T06:09:01.978Z,103463.64
2019-05-13T06:11:33.744Z,103460.77
2019-05-13T06:14:04.858Z,103458.80
2019-05-13T06:16:33.621Z,103454.06
2019-05-13T06:19:02.213Z,103462.78
2019-05-13T06:21:32.161Z,103458.06
2019-05-13T06:24:02.722Z,103454.66
2019-05-13T06:26:31.853Z,103456.52
2019-05-13T06:29:02.524Z,103453.30
2019-05-13T06:31:34.814Z,103446.08
2019-05-13T06:34:03.462Z,103448.77
2019-05-13T06:36:31.952Z,103444.01
2019-05-13T06:39:02.231Z,103445.14
2019-05-13T06:41:34.705Z,103438.03
2019-05-13T06:44:05.341Z,103445.17
2019-05-13T06:46:34.126Z,103443.25
2019-05-13T06:49:05.030Z,103448.58
2019-05-13T06:51:33.461Z,103455.98
2019-05-13T06:54:02.467Z,103458.80
2019-05-13T06:56:32.384Z,103462.30
2019-05-13T06:59:01.591Z,103462.01
2019-05-13T07:01:35.981Z,103462.31
2019-05-13T07:04:03.712Z,103463.83
2019-05-13T07:06:32.507Z,103467.13
2019-05-13T07:09:01.501Z,103474.97
2019-05-13T07:11:31.449Z,103471.03
2019-05-13T07:14:02.458Z,103469.25
2019-05-13T07:16:31.725Z,103465.77
2019-05-13T07:19:02.482Z,103464.44
2019-05-13T07:21:32.339Z,103467.75
2019-05-13T07:24:02.330Z,103473.82
2019-05-13T07:26:31.906Z,103473.74
2019-05-13T07:29:03.275Z,103474.89
2019-05-13T07:31:32.345Z,103468.05
2019-05-13T07:34:02.412Z,103475.45
2019-05-13T07:39:01.380Z,103471.64
2019-05-13T07:41:36.506Z,103478.25
2019-05-13T07:44:02.411Z,103475.64
2019-05-13T07:46:32.285Z,103473.13
2019-05-13T07:49:02.146Z,103469.25
2019-05-13T07:51:31.813Z,103461.98
2019-05-13T07:54:02.193Z,103468.10
2019-05-13T07:56:32.438Z,103472.67
2019-05-13T07:59:01.706Z,103474.23
2019-05-13T08:01:32.709Z,103474.40
2019-05-13T08:04:02.152Z,103480.09
2019-05-13T08:06:32.326Z,103478.37
2019-05-13T08:09:01.717Z,103472.61
2019-05-13T08:11:36.849Z,103485.91
2019-05-13T08:14:01.804Z,103492.38
2019-05-13T08:16:32.293Z,103483.41
2019-05-13T08:19:01.799Z,103488.66
2019-05-13T08:21:32.217Z,103493.35
2019-05-13T08:24:02.764Z,103492.16
2019-05-13T08:26:32.313Z,103490.66
2019-05-13T08:29:06.643Z,103489.05
2019-05-13T08:31:35.040Z,103489.41
2019-05-13T08:34:06.102Z,103484.46
2019-05-13T08:36:34.547Z,103486.92
2019-05-13T08:39:03.420Z,103483.83
2019-05-13T08:41:32.348Z,103481.06
2019-05-13T08:44:01.727Z,103473.67
2019-05-13T08:46:32.263Z,103488.37
2019-05-13T08:49:03.805Z,103487.92
2019-05-13T08:51:32.268Z,103484.22
2019-05-13T08:54:02.443Z,103484.23
2019-05-13T08:56:32.606Z,103493.16
2019-05-13T08:59:03.311Z,103488.56
2019-05-13T09:01:32.047Z,103485.56
2019-05-13T09:04:02.446Z,103494.50
2019-05-13T09:06:31.288Z,103493.06
2019-05-13T09:09:02.386Z,103485.06
2019-05-13T09:11:31.549Z,103488.26
2019-05-13T09:14:03.342Z,103479.56
2019-05-13T09:16:35.542Z,103478.78
2019-05-13T09:19:04.190Z,103483.23
2019-05-13T09:21:32.614Z,103482.46
2019-05-13T09:24:03.056Z,103470.87
2019-05-13T09:26:31.744Z,103478.58
2019-05-13T09:29:01.442Z,103485.56
2019-05-13T09:31:32.452Z,103485.36
2019-05-13T09:34:02.684Z,103494.10
2019-05-13T09:36:34.022Z,103486.45
2019-05-13T09:39:02.446Z,103483.23
2019-05-13T09:41:32.276Z,103482.42
2019-05-13T09:44:03.574Z,103480.05
2019-05-13T09:46:32.026Z,103488.09
2019-05-13T09:49:12.909Z,103493.47
2019-05-13T09:51:32.379Z,103479.11
2019-05-13T09:54:01.425Z,103487.58
2019-05-13T09:56:31.955Z,103489.70
2019-05-13T09:59:01.802Z,103487.78
2019-05-13T10:01:32.002Z,103476.66
2019-05-13T10:04:02.835Z,103480.07
2019-05-13T10:06:32.717Z,103470.32
2019-05-13T10:09:02.403Z,103471.41
2019-05-13T10:11:30.919Z,103479.41
2019-05-13T10:14:01.821Z,103468.00
2019-05-13T10:16:31.296Z,103472.03
2019-05-13T10:19:01.586Z,103461.22
2019-05-13T10:21:32.422Z,103463.13
2019-05-13T10:24:00.441Z,103451.42
2019-05-13T10:26:31.965Z,103466.63
2019-05-13T10:28:59.782Z,103461.71
2019-05-13T10:31:28.208Z,103459.54
2019-05-13T10:34:02.011Z,103461.16
2019-05-13T10:36:29.503Z,103463.22
2019-05-13T10:38:57.898Z,103460.36
2019-05-13T10:41:26.476Z,103451.69
2019-05-13T10:43:54.893Z,103452.77
2019-05-13T10:46:23.474Z,103458.98
2019-05-13T10:48:52.701Z,103458.72
2019-05-13T10:51:22.283Z,103461.52
2019-05-13T10:53:53.603Z,103465.30
2019-05-13T10:56:21.096Z,103458.77
2019-05-13T10:58:53.124Z,103454.56
2019-05-13T11:01:22.312Z,103461.46
2019-05-13T11:03:52.383Z,103448.59
2019-05-13T11:06:21.883Z,103451.71
2019-05-13T11:08:53.166Z,103453.57
2019-05-13T11:11:21.890Z,103461.84
2019-05-13T11:16:22.558Z,103452.70
2019-05-13T11:18:54.896Z,103453.27
2019-05-13T11:21:23.324Z,103448.04
2019-05-13T11:23:55.525Z,103440.72
2019-05-13T11:26:24.023Z,103446.45
2019-05-13T11:28:52.519Z,103439.23
2019-05-13T11:31:22.427Z,103439.00
2019-05-13T11:33:52.109Z,103438.55
2019-05-13T11:36:23.247Z,103439.50
2019-05-13T11:38:53.110Z,103431.12
2019-05-13T11:41:23.146Z,103436.03
2019-05-13T11:44:11.871Z,103440.63
2019-05-13T11:46:33.239Z,103437.41
2019-05-13T11:49:02.507Z,103428.88
2019-05-13T11:51:31.965Z,103421.14
2019-05-13T11:54:02.435Z,103430.61
2019-05-13T11:56:33.658Z,103419.98
2019-05-13T11:59:04.081Z,103424.53
2019-05-13T12:01:33.472Z,103412.66
2019-05-13T12:04:02.757Z,103421.23
2019-05-13T12:06:34.617Z,103417.14
2019-05-13T12:09:05.172Z,103414.52
2019-05-13T12:11:33.613Z,103414.78
2019-05-13T12:14:01.980Z,103412.81
2019-05-13T12:16:30.419Z,103408.97
2019-05-13T12:19:03.098Z,103402.66
2019-05-13T12:21:30.034Z,103407.97
2019-05-13T12:23:58.429Z,103405.56
2019-05-13T12:26:26.905Z,103406.11
2019-05-13T12:28:55.298Z,103397.70
2019-05-13T12:31:28.783Z,103397.48
2019-05-13T12:33:57.201Z,103394.66
2019-05-13T12:36:25.592Z,103385.84
2019-05-13T12:38:54.519Z,103388.42
2019-05-13T12:41:23.279Z,103381.58
2019-05-13T12:43:53.928Z,103382.73
2019-05-13T12:46:24.746Z,103375.04
2019-05-13T12:48:52.793Z,103372.63
2019-05-13T12:51:22.744Z,103369.97
2019-05-13T12:53:52.784Z,103372.39
2019-05-13T12:56:23.518Z,103367.79
2019-05-13T12:58:52.330Z,103365.92
2019-05-13T13:01:23.870Z,103354.55
2019-05-13T13:03:52.407Z,103358.48
2019-05-13T13:06:31.273Z,103353.52
2019-05-13T13:08:53.596Z,103355.64
2019-05-13T13:11:22.805Z,103353.30
2019-05-13T13:13:58.826Z,103353.62
2019-05-13T13:16:21.871Z,103348.30
2019-05-13T13:18:52.544Z,103345.84
2019-05-13T13:21:24.391Z,103340.40
2019-05-13T13:23:51.493Z,103337.89
2019-05-13T13:26:21.730Z,103344.84
2019-05-13T13:28:55.115Z,103337.95
2019-05-13T13:31:24.617Z,103331.30
2019-05-13T13:33:55.295Z,103330.23
2019-05-13T13:36:23.966Z,103320.21
2019-05-13T13:38:56.232Z,103327.25
2019-05-13T13:41:22.902Z,103321.97
2019-05-13T13:43:53.788Z,103324.11
2019-05-13T13:46:33.902Z,103321.08
2019-05-13T13:51:53.036Z,103318.52
2019-05-13T13:54:22.593Z,103315.02
2019-05-13T13:56:55.862Z,103291.43
2019-05-13T13:59:24.780Z,103312.64
2019-05-13T14:01:55.418Z,103308.67
2019-05-13T14:04:23.929Z,103299.46
2019-05-13T14:07:05.575Z,103457.42
2019-05-13T14:09:25.969Z,103305.04
2019-05-13T14:11:54.368Z,103310.59
2019-05-13T14:14:26.713Z,103305.11
2019-05-13T14:16:55.136Z,103302.21
2019-05-13T14:19:23.792Z,103308.31
2019-05-13T14:21:52.626Z,103294.20
2019-05-13T14:24:22.649Z,103293.38
2019-05-13T14:26:52.361Z,103296.31
2019-05-13T14:29:36.279Z,103291.88
2019-05-13T14:31:52.235Z,103294.77
2019-05-13T14:34:21.610Z,103286.97
2019-05-13T14:36:51.760Z,103281.83
2019-05-13T14:39:22.231Z,103279.45
2019-05-13T14:41:52.257Z,103274.39
2019-05-13T14:44:23.676Z,103274.58
2019-05-13T14:46:52.496Z,103275.83
2019-05-13T14:49:22.464Z,103274.95
2019-05-13T14:51:52.238Z,103269.89
2019-05-13T14:54:21.362Z,103277.99
2019-05-13T14:56:52.067Z,103272.66
2019-05-13T14:59:22.225Z,103272.91
2019-05-13T15:01:51.870Z,103281.95
2019-05-13T15:04:22.187Z,103276.02
2019-05-13T15:06:50.613Z,103274.48
2019-05-13T15:09:19.019Z,103273.73
2019-05-13T15:11:47.737Z,103267.28
2019-05-13T15:14:18.605Z,103257.63
2019-05-13T15:17:00.618Z,103264.56
2019-05-13T15:19:17.187Z,103267.48
2019-05-13T15:21:45.594Z,103268.64
2019-05-13T15:24:14.026Z,103265.92
2019-05-13T15:26:42.612Z,103268.13
2019-05-13T15:29:11.608Z,103269.48
2019-05-13T15:31:42.400Z,103266.23
2019-05-13T15:34:10.433Z,103273.80
2019-05-13T15:36:38.861Z,103275.62
2019-05-13T15:39:07.629Z,103276.61
2019-05-13T15:41:36.497Z,103268.89
2019-05-13T15:44:05.081Z,103278.27
2019-05-13T15:46:34.567Z,103275.34
2019-05-13T15:49:03.000Z,103270.63
2019-05-13T15:51:31.635Z,103274.43
2019-05-13T15:54:03.568Z,103269.53
2019-05-13T15:56:31.635Z,103264.00
2019-05-13T15:59:01.918Z,103273.20
2019-05-13T16:01:30.282Z,103267.44
2019-05-13T16:04:02.726Z,103266.58
2019-05-13T16:06:32.173Z,103273.94
2019-05-13T16:09:02.766Z,103262.48
2019-05-13T16:11:32.597Z,103269.24
2019-05-13T16:14:02.083Z,103271.53
2019-05-13T16:16:32.401Z,103271.91
2019-05-13T16:19:00.966Z,103268.66
2019-05-13T16:21:32.021Z,103267.40
2019-05-13T16:24:03.224Z,103276.13
2019-05-13T16:26:32.101Z,103273.13
2019-05-13T16:29:02.177Z,103272.25
2019-05-13T16:31:31.842Z,103278.33
2019-05-13T16:34:01.547Z,103279.83
2019-05-13T16:36:31.332Z,103275.13
2019-05-13T16:39:04.912Z,103273.14
2019-05-13T16:41:33.583Z,103286.34
2019-05-13T16:44:01.986Z,103285.16
2019-05-13T16:46:31.656Z,103279.50
2019-05-13T16:49:04.772Z,103281.20
2019-05-13T16:51:35.147Z,103285.05
2019-05-13T16:54:04.633Z,103288.09
2019-05-13T16:56:33.555Z,103283.44
2019-05-13T16:59:02.129Z,103277.46
2019-05-13T17:01:30.573Z,103273.76
2019-05-13T17:04:02.042Z,103270.92
2019-05-13T17:06:32.164Z,103279.57
2019-05-13T17:09:02.032Z,103280.89
2019-05-13T17:11:32.164Z,103279.69
2019-05-13T17:14:02.387Z,103275.86
2019-05-13T17:16:31.758Z,103275.17
2019-05-13T17:19:01.371Z,103279.56
2019-05-13T17:21:31.643Z,103282.28
2019-05-13T17:24:01.594Z,103281.78
2019-05-13T17:26:32.515Z,103283.52
2019-05-13T17:29:01.411Z,103284.58
2019-05-13T17:31:32.546Z,103280.80
2019-05-13T17:34:01.809Z,103287.37
2019-05-13T17:36:32.442Z,103287.36
2019-05-13T17:39:01.828Z,103292.47
2019-05-13T17:41:32.157Z,103293.45
2019-05-13T17:44:02.389Z,103294.29
2019-05-13T17:46:32.581Z,103288.45
2019-05-13T17:49:01.108Z,103284.55
2019-05-13T17:51:31.045Z,103287.36
2019-05-13T17:54:01.419Z,103286.39
2019-05-13T17:56:29.598Z,103290.03
2019-05-13T17:58:59.753Z,103286.64
2019-05-13T18:01:28.325Z,103288.22
2019-05-13T18:03:56.740Z,103287.87
2019-05-13T18:06:25.165Z,103285.19
2019-05-13T18:08:53.585Z,103277.31
2019-05-13T18:11:22.118Z,103279.47
2019-05-13T18:13:51.912Z,103281.05
2019-05-13T18:16:24.712Z,103283.69
2019-05-13T18:18:52.269Z,103282.85
2019-05-13T18:21:20.777Z,103281.61
2019-05-13T18:23:49.187Z,103288.51
2019-05-13T18:26:17.600Z,103283.14
2019-05-13T18:28:46.041Z,103290.09
2019-05-13T18:31:14.474Z,103293.03
2019-05-13T18:33:42.891Z,103287.91
2019-05-13T18:36:12.070Z,103287.67
2019-05-13T18:38:41.843Z,103292.39
2019-05-13T18:41:12.707Z,103285.56
2019-05-13T18:43:41.451Z,103290.19
2019-05-13T18:46:12.232Z,103291.30
2019-05-13T18:48:57.385Z,103292.39
2019-05-13T18:51:12.132Z,103285.70
2019-05-13T18:53:41.950Z,103293.41
2019-05-13T18:56:12.429Z,103298.63
2019-05-13T18:58:46.941Z,103300.55
2019-05-13T19:01:21.438Z,103296.05
2019-05-13T19:03:49.335Z,103297.38
2019-05-13T19:06:22.328Z,103300.80
2019-05-13T19:08:48.817Z,103303.97
2019-05-13T19:11:17.220Z,103309.89
2019-05-13T19:13:46.055Z,103306.75
2019-05-13T19:16:14.461Z,103315.89
2019-05-13T19:18:42.954Z,103321.26
2019-05-13T19:21:11.469Z,103331.94
2019-05-13T19:23:41.933Z,103325.27
2019-05-13T19:26:11.313Z,103328.56
2019-05-13T19:28:40.879Z,103330.15
2019-05-13T19:31:11.405Z,103335.55
2019-05-13T19:33:41.669Z,103334.55
2019-05-13T19:36:11.752Z,103336.80
2019-05-13T19:38:42.271Z,103344.10
2019-05-13T19:41:11.644Z,103340.20
2019-05-13T19:43:42.586Z,103347.47
2019-05-13T19:46:11.006Z,103346.52
2019-05-13T19:48:41.572Z,103352.42
2019-05-13T19:51:10.772Z,103346.89
2019-05-13T19:53:44.542Z,103346.52
2019-05-13T19:56:17.711Z,103351.07
2019-05-13T19:58:46.129Z,103354.70
2019-05-13T20:01:14.706Z,103353.94
2019-05-13T20:03:43.129Z,103355.65
2019-05-13T20:06:13.560Z,103360.23
2019-05-13T20:08:43.053Z,103363.97
2019-05-13T20:11:13.998Z,103360.92
2019-05-13T20:13:42.476Z,103358.63
2019-05-13T20:16:14.544Z,103363.44
2019-05-13T20:18:43.021Z,103354.25
2019-05-13T20:21:14.089Z,103356.62
2019-05-13T20:23:42.587Z,103354.98
2019-05-13T20:26:13.390Z,103357.06
2019-05-13T20:28:42.866Z,103348.91
2019-05-13T20:31:15.954Z,103349.00
2019-05-13T20:33:44.379Z,103351.89
2019-05-13T20:36:12.787Z,103355.78
2019-05-13T20:38:41.194Z,103355.78
2019-05-13T20:41:12.478Z,103361.89
2019-05-13T20:43:44.628Z,103368.08
2019-05-13T20:46:16.804Z,103377.72
2019-05-13T20:48:45.199Z,103371.07
2019-05-13T20:51:13.649Z,103372.06
2019-05-13T20:53:46.141Z,103367.31
2019-05-13T20:56:17.714Z,103374.64
2019-05-13T20:58:46.113Z,103370.73
2019-05-13T21:01:14.511Z,103381.19
2019-05-13T21:03:42.968Z,103378.81
2019-05-13T21:06:12.326Z,103374.55
2019-05-13T21:08:41.523Z,103366.19
2019-05-13T21:11:11.466Z,103364.30
2019-05-13T21:13:41.219Z,103368.84
2019-05-13T21:16:12.054Z,103373.21
2019-05-13T21:18:42.124Z,103374.61
2019-05-13T21:21:11.656Z,103370.72
2019-05-13T21:23:41.717Z,103366.89
2019-05-13T21:26:13.146Z,103375.63
2019-05-13T21:28:41.853Z,103375.72
2019-05-13T21:31:11.316Z,103372.73
2019-05-13T21:33:39.975Z,103371.88
2019-05-13T21:36:08.373Z,103370.17
2019-05-13T21:38:36.787Z,103378.02
2019-05-13T21:41:05.184Z,103371.56
2019-05-13T21:43:33.632Z,103369.72
2019-05-13T21:46:02.296Z,103366.36
2019-05-13T21:48:32.460Z,103365.91
2019-05-13T21:51:01.140Z,103361.70
2019-05-13T21:53:32.348Z,103360.44
2019-05-13T21:56:02.106Z,103355.36
2019-05-13T21:58:31.289Z,103362.25
2019-05-13T22:01:01.705Z,103359.53
2019-05-13T22:03:33.549Z,103361.52
2019-05-13T22:06:01.983Z,103362.45
2019-05-13T22:08:32.208Z,103358.77
2019-05-13T22:11:01.750Z,103360.34
2019-05-13T22:13:31.576Z,103362.07
2019-05-13T22:16:01.742Z,103361.67
2019-05-13T22:18:33.359Z,103358.87
2019-05-13T22:21:01.970Z,103357.64
2019-05-13T22:23:33.086Z,103351.90
2019-05-13T22:26:01.958Z,103356.20
2019-05-13T22:28:31.269Z,103353.58
2019-05-13T22:31:01.387Z,103355.31
2019-05-13T22:33:32.294Z,103355.70
2019-05-13T22:36:01.619Z,103359.53
2019-05-13T22:38:32.297Z,103352.53
2019-05-13T22:41:01.241Z,103350.73
2019-05-13T22:43:32.402Z,103351.66
2019-05-13T22:46:00.812Z,103349.80
2019-05-13T22:48:35.139Z,103345.35
2019-05-13T22:51:03.547Z,103350.59
2019-05-13T22:53:32.118Z,103357.89
2019-05-13T22:56:00.579Z,103349.81
2019-05-13T22:58:31.863Z,103351.53
2019-05-13T23:01:02.225Z,103347.08
2019-05-13T23:03:32.316Z,103349.73
2019-05-13T23:06:01.583Z,103352.16
2019-05-13T23:08:32.326Z,103353.61
2019-05-13T23:11:02.057Z,103349.81
2019-05-13T23:13:31.291Z,103349.81
2019-05-13T23:16:02.116Z,103352.53
2019-05-13T23:18:31.647Z,103345.60
2019-05-13T23:21:02.261Z,103346.45
2019-05-13T23:23:30.470Z,103343.09
2019-05-13T23:25:58.919Z,103344.03
2019-05-13T23:28:27.363Z,103356.60
2019-05-13T23:30:56.784Z,103349.23
2019-05-13T23:33:25.210Z,103351.78
2019-05-13T23:35:53.652Z,103357.08
2019-05-13T23:38:25.897Z,103346.55
2019-05-13T23:40:54.332Z,103339.48
2019-05-13T23:43:25.430Z,103343.80
2019-05-13T23:45:53.830Z,103345.31
2019-05-13T23:48:23.315Z,103344.17
2019-05-13T23:50:52.270Z,103352.50
2019-05-13T23:53:21.862Z,103349.15
2019-05-13T23:55:51.977Z,103355.15
2019-05-13T23:58:21.738Z,103353.27
